Terminal Aerodrome Forecast
Issued by NWS Portland, OR

Home | Current Version | Previous Version | Text Only | Print | Product List | Glossary On
Versions: 1 2 3 4 5 6 7 8 9 10 11 12 13 14 15 16
000
FTUS46 KPQR 162334
TAFSLE
TAF
KSLE 162334Z 1700/1724 16007KT P6SM SCT040 BKN200
     FM170200 VRB04KT P6SM SCT080 BKN120 BKN250
     FM170900 16005KT P6SM -RA SCT050 OVC080
     FM171500 16008KT P6SM BKN060 OVC100=

USA.gov is the U.S. government's official web portal to all federal, state and local government web resources and services.